createdAt,value
2023-01-08T00:03:03.006Z,98666.60
2023-01-08T00:06:11.814Z,98666.80
2023-01-08T00:09:17.599Z,98672.40
2023-01-08T00:12:22.424Z,98670.80
2023-01-08T00:15:27.781Z,98668.00
2023-01-08T00:18:33.557Z,98661.20
2023-01-08T00:21:38.430Z,98655.60
2023-01-08T00:24:43.454Z,98648.20
2023-01-08T00:27:48.353Z,98644.60
2023-01-08T00:30:53.500Z,98635.80
2023-01-08T00:33:58.347Z,98639.60
2023-01-08T00:37:03.686Z,98631.80
2023-01-08T00:40:11.942Z,98629.40
2023-01-08T00:43:17.231Z,98630.40
2023-01-08T00:46:22.123Z,98627.20
2023-01-08T00:49:27.241Z,98633.20
2023-01-08T00:52:32.336Z,98635.80
2023-01-08T00:55:37.061Z,98635.00
2023-01-08T00:58:42.576Z,98641.40
2023-01-08T01:01:48.174Z,98637.60
2023-01-08T01:04:53.061Z,98640.60
2023-01-08T01:07:58.311Z,98643.00
2023-01-08T01:11:08.418Z,98650.00
2023-01-08T01:14:13.859Z,98643.60
2023-01-08T01:17:19.302Z,98637.20
2023-01-08T01:20:26.249Z,98629.40
2023-01-08T01:23:31.340Z,98627.00
2023-01-08T01:26:37.208Z,98634.60
2023-01-08T01:29:42.456Z,98631.60
2023-01-08T01:32:48.009Z,98622.20
2023-01-08T01:36:02.521Z,98623.80
2023-01-08T01:39:09.232Z,98604.00
2023-01-08T01:42:31.481Z,98601.60
2023-01-08T01:45:36.539Z,98601.20
2023-01-08T01:48:41.864Z,98600.80
2023-01-08T01:51:53.221Z,98600.40
2023-01-08T01:55:01.422Z,98587.40
2023-01-08T01:58:13.628Z,98583.40
2023-01-08T02:01:19.563Z,98581.60
2023-01-08T02:04:25.064Z,98580.60
2023-01-08T02:07:43.312Z,98573.20
2023-01-08T02:11:00.294Z,98569.60
2023-01-08T02:14:17.128Z,98572.00
2023-01-08T02:17:33.264Z,98567.00
2023-01-08T02:20:43.801Z,98559.80
2023-01-08T02:24:03.046Z,98555.00
2023-01-08T02:27:11.920Z,98551.40
2023-01-08T02:30:17.658Z,98545.80
2023-01-08T02:33:23.993Z,98546.60
2023-01-08T02:36:37.757Z,98539.40
2023-01-08T02:39:58.030Z,98543.40
2023-01-08T02:43:12.565Z,98543.00
2023-01-08T02:46:26.361Z,98544.00
2023-01-08T02:49:39.608Z,98545.60
2023-01-08T02:52:56.655Z,98545.60
2023-01-08T02:56:08.429Z,98538.40
2023-01-08T02:59:16.208Z,98537.80
2023-01-08T03:02:22.099Z,98541.20
2023-01-08T03:05:29.387Z,98532.00
2023-01-08T03:08:39.030Z,98524.40
2023-01-08T03:11:53.265Z,98532.60
2023-01-08T03:15:07.729Z,98528.20
2023-01-08T03:18:19.810Z,98523.40
2023-01-08T03:21:28.441Z,98529.40
2023-01-08T03:24:39.849Z,98513.80
2023-01-08T03:27:49.853Z,98516.20
2023-01-08T03:30:55.696Z,98514.00
2023-01-08T03:34:04.278Z,98512.80
2023-01-08T03:37:13.323Z,98511.00
2023-01-08T03:40:26.763Z,98507.40
2023-01-08T03:43:32.869Z,98500.00
2023-01-08T03:46:48.322Z,98498.00
2023-01-08T03:50:00.769Z,98496.80
2023-01-08T03:53:07.917Z,98497.80
2023-01-08T03:56:13.348Z,98502.00
2023-01-08T03:59:18.749Z,98505.60
2023-01-08T04:02:24.513Z,98502.40
2023-01-08T04:05:30.602Z,98501.00
2023-01-08T04:08:36.077Z,98502.00
2023-01-08T04:11:41.427Z,98497.00
2023-01-08T04:14:47.227Z,98489.20
2023-01-08T04:17:53.378Z,98487.60
2023-01-08T04:20:58.771Z,98487.20
2023-01-08T04:24:04.516Z,98493.20
2023-01-08T04:27:10.244Z,98486.40
2023-01-08T04:30:16.101Z,98501.20
2023-01-08T04:33:20.870Z,98500.40
2023-01-08T04:36:26.366Z,98500.40
2023-01-08T04:39:31.836Z,98494.60
2023-01-08T04:42:36.965Z,98497.60
2023-01-08T04:45:41.909Z,98503.00
2023-01-08T04:48:47.599Z,98507.40
2023-01-08T04:51:52.866Z,98505.00
2023-01-08T04:54:57.851Z,98509.00
2023-01-08T04:58:03.231Z,98504.00
2023-01-08T05:01:14.763Z,98501.60
2023-01-08T05:04:20.100Z,98497.00
2023-01-08T05:07:25.276Z,98489.00
2023-01-08T05:10:30.558Z,98487.40
2023-01-08T05:13:35.495Z,98489.60
2023-01-08T05:16:40.391Z,98479.80
2023-01-08T05:19:45.276Z,98480.00
2023-01-08T05:22:50.868Z,98484.80
2023-01-08T05:25:58.962Z,98487.20
2023-01-08T05:29:04.222Z,98481.00
2023-01-08T05:32:17.464Z,98475.20
2023-01-08T05:35:22.570Z,98474.20
2023-01-08T05:38:27.548Z,98473.60
2023-01-08T05:41:32.576Z,98473.00
2023-01-08T05:44:37.381Z,98469.80
2023-01-08T05:47:42.268Z,98463.20
2023-01-08T05:50:50.033Z,98458.80
2023-01-08T05:53:55.097Z,98457.80
2023-01-08T05:57:00.111Z,98456.20
2023-01-08T06:00:08.179Z,98447.40
2023-01-08T06:03:13.516Z,98444.20
2023-01-08T06:06:18.732Z,98440.60
2023-01-08T06:09:23.569Z,98447.60
2023-01-08T06:12:29.082Z,98453.00
2023-01-08T06:15:34.490Z,98453.20
2023-01-08T06:18:40.219Z,98452.60
2023-01-08T06:21:45.051Z,98447.20
2023-01-08T06:24:49.671Z,98438.60
2023-01-08T06:27:54.756Z,98431.40
2023-01-08T06:31:01.094Z,98436.80
2023-01-08T06:34:06.708Z,98433.80
2023-01-08T06:37:11.632Z,98439.20
2023-01-08T06:40:17.198Z,98442.20
2023-01-08T06:43:23.997Z,98446.20
2023-01-08T06:46:28.620Z,98442.20
2023-01-08T06:49:33.755Z,98438.20
2023-01-08T06:52:38.387Z,98435.80
2023-01-08T06:55:43.299Z,98435.00
2023-01-08T06:58:49.161Z,98433.40
2023-01-08T07:01:54.217Z,98435.40
2023-01-08T07:04:59.128Z,98432.80
2023-01-08T07:08:04.421Z,98436.60
2023-01-08T07:11:10.023Z,98443.40
2023-01-08T07:14:15.564Z,98440.80
2023-01-08T07:17:20.601Z,98434.20
2023-01-08T07:20:25.505Z,98428.80
2023-01-08T07:23:31.531Z,98426.20
2023-01-08T07:26:38.979Z,98423.80
2023-01-08T07:29:43.703Z,98427.00
2023-01-08T07:32:48.655Z,98426.40
2023-01-08T07:35:57.095Z,98421.80
2023-01-08T07:39:02.299Z,98415.40
2023-01-08T07:42:10.666Z,98416.40
2023-01-08T07:45:15.697Z,98413.60
2023-01-08T07:48:20.395Z,98416.40
2023-01-08T07:51:25.740Z,98419.00
2023-01-08T07:54:30.785Z,98416.80
2023-01-08T07:57:35.811Z,98412.20
2023-01-08T08:00:41.224Z,98407.60
2023-01-08T08:03:46.547Z,98402.60
2023-01-08T08:06:51.213Z,98396.40
2023-01-08T08:09:56.261Z,98390.00
2023-01-08T08:13:01.286Z,98387.60
2023-01-08T08:16:08.261Z,98386.00
2023-01-08T08:19:15.056Z,98388.00
2023-01-08T08:22:20.493Z,98386.20
2023-01-08T08:25:25.312Z,98387.80
2023-01-08T08:28:30.529Z,98376.00
2023-01-08T08:31:35.501Z,98366.20
2023-01-08T08:34:40.488Z,98363.80
2023-01-08T08:37:45.337Z,98361.00
2023-01-08T08:40:50.692Z,98366.80
2023-01-08T08:43:55.460Z,98363.80
2023-01-08T08:47:00.675Z,98357.40
2023-01-08T08:50:09.516Z,98356.20
2023-01-08T08:53:14.986Z,98356.40
2023-01-08T08:56:20.249Z,98364.60
2023-01-08T08:59:25.449Z,98361.00
2023-01-08T09:02:31.224Z,98364.20
2023-01-08T09:05:38.087Z,98362.40
2023-01-08T09:08:43.562Z,98364.20
2023-01-08T09:11:48.647Z,98358.00
2023-01-08T09:14:54.187Z,98356.60
2023-01-08T09:17:59.744Z,98354.00
2023-01-08T09:21:08.183Z,98354.00
2023-01-08T09:24:13.460Z,98352.60
2023-01-08T09:27:18.202Z,98343.00
2023-01-08T09:30:22.871Z,98337.40
2023-01-08T09:33:28.177Z,98333.60
2023-01-08T09:36:33.191Z,98324.60
2023-01-08T09:39:41.150Z,98323.60
2023-01-08T09:42:54.250Z,98316.20
2023-01-08T09:46:04.779Z,98318.20
2023-01-08T09:49:19.711Z,98307.20
2023-01-08T09:52:25.110Z,98305.80
2023-01-08T09:55:34.158Z,98299.60
2023-01-08T09:58:44.394Z,98294.20
2023-01-08T10:01:51.022Z,98285.80
2023-01-08T10:04:59.540Z,98282.20
2023-01-08T10:08:07.413Z,98274.20
2023-01-08T10:11:15.772Z,98266.40
2023-01-08T10:14:27.132Z,98259.20
2023-01-08T10:17:39.065Z,98249.80
2023-01-08T10:20:44.109Z,98252.60
2023-01-08T10:23:53.429Z,98245.60
2023-01-08T10:27:09.673Z,98242.00
2023-01-08T10:30:19.732Z,98242.80
2023-01-08T10:33:26.177Z,98240.00
2023-01-08T10:36:31.154Z,98242.20
2023-01-08T10:39:36.898Z,98242.80
2023-01-08T10:42:42.327Z,98239.00
2023-01-08T10:46:00.914Z,98231.20
2023-01-08T10:49:17.442Z,98228.60
2023-01-08T10:52:32.763Z,98213.20
2023-01-08T10:55:39.426Z,98222.40
2023-01-08T10:58:45.030Z,98217.40
2023-01-08T11:01:52.304Z,98220.00
2023-01-08T11:04:59.018Z,98213.60
2023-01-08T11:08:08.016Z,98202.00
2023-01-08T11:11:13.213Z,98188.20
2023-01-08T11:14:26.038Z,98189.60
2023-01-08T11:17:32.653Z,98174.80
2023-01-08T11:20:39.081Z,98169.20
2023-01-08T11:23:44.841Z,98167.80
2023-01-08T11:26:53.713Z,98160.40
2023-01-08T11:30:05.849Z,98147.80
2023-01-08T11:33:16.759Z,98138.20
2023-01-08T11:36:32.820Z,98147.20
2023-01-08T11:39:39.573Z,98138.40
2023-01-08T11:43:05.081Z,98127.00
2023-01-08T11:46:33.761Z,98121.20
2023-01-08T11:50:11.797Z,98118.40
2023-01-08T11:53:28.102Z,98112.20
2023-01-08T11:56:56.384Z,98105.20
2023-01-08T12:00:20.779Z,98099.40
2023-01-08T12:03:36.881Z,98104.40
2023-01-08T12:06:55.419Z,98098.60
2023-01-08T12:10:14.033Z,98104.20
2023-01-08T12:13:41.087Z,98104.40
2023-01-08T12:17:23.512Z,98101.20
2023-01-08T12:20:39.604Z,98102.40
2023-01-08T12:24:12.102Z,98097.20
2023-01-08T12:27:55.349Z,98100.40
2023-01-08T12:31:18.413Z,98096.00
2023-01-08T12:34:37.402Z,98093.80
2023-01-08T12:37:51.787Z,98100.60
2023-01-08T12:41:01.590Z,98089.60
2023-01-08T12:44:12.021Z,98101.80
2023-01-08T12:47:25.091Z,98098.00
2023-01-08T12:50:57.992Z,98099.60
2023-01-08T12:54:19.173Z,98095.20
2023-01-08T12:57:31.957Z,98098.40
2023-01-08T13:00:44.424Z,98089.20
2023-01-08T13:03:51.098Z,98082.40
2023-01-08T13:07:05.756Z,98090.80
2023-01-08T13:10:35.480Z,98086.60
2023-01-08T13:13:44.567Z,98089.60
2023-01-08T13:17:03.370Z,98088.60
2023-01-08T13:20:19.561Z,98092.20
2023-01-08T13:23:28.505Z,98090.80
2023-01-08T13:26:35.879Z,98082.40
2023-01-08T13:29:43.515Z,98079.80
2023-01-08T13:32:48.883Z,98082.60
2023-01-08T13:36:15.686Z,98081.60
2023-01-08T13:39:25.015Z,98077.00
2023-01-08T13:42:31.045Z,98076.20
2023-01-08T13:45:36.863Z,98076.20
2023-01-08T13:48:55.031Z,98075.40
2023-01-08T13:52:00.237Z,98079.80
2023-01-08T13:55:13.760Z,98075.20
2023-01-08T13:58:25.758Z,98080.20
2023-01-08T14:01:30.653Z,98076.40
2023-01-08T14:04:35.514Z,98074.00
2023-01-08T14:07:42.520Z,98072.60
2023-01-08T14:10:47.503Z,98070.40
2023-01-08T14:13:54.227Z,98080.80
2023-01-08T14:16:59.067Z,98078.60
2023-01-08T14:20:11.436Z,98079.00
2023-01-08T14:23:26.218Z,98077.20
2023-01-08T14:26:36.249Z,98076.60
2023-01-08T14:29:46.884Z,98072.60
2023-01-08T14:32:52.283Z,98074.20
2023-01-08T14:35:57.914Z,98073.80
2023-01-08T14:39:02.611Z,98067.60
2023-01-08T14:42:32.596Z,98068.40
2023-01-08T14:45:39.581Z,98065.60
2023-01-08T14:48:47.291Z,98065.80
2023-01-08T14:51:53.336Z,98061.80
2023-01-08T14:55:03.157Z,98061.80
2023-01-08T14:58:17.189Z,98064.00
2023-01-08T15:02:19.692Z,98065.60
2023-01-08T15:05:32.808Z,98070.20
2023-01-08T15:08:45.033Z,98051.20
2023-01-08T15:11:58.957Z,98060.60
2023-01-08T15:15:25.764Z,98063.60
2023-01-08T15:18:35.108Z,98061.80
2023-01-08T15:21:48.937Z,98052.60
2023-01-08T15:25:03.829Z,98046.60
2023-01-08T15:28:21.775Z,98043.80
2023-01-08T15:31:45.796Z,98050.00
2023-01-08T15:34:53.952Z,98051.40
2023-01-08T15:38:02.096Z,98048.20
2023-01-08T15:41:40.435Z,98032.40
2023-01-08T15:44:49.144Z,98028.20
2023-01-08T15:47:57.840Z,98037.60
2023-01-08T15:51:07.433Z,98032.20
2023-01-08T15:54:17.013Z,98034.40
2023-01-08T15:57:24.813Z,98028.60
2023-01-08T16:00:34.083Z,98024.60
2023-01-08T16:03:41.879Z,98026.00
2023-01-08T16:06:51.400Z,98022.40
2023-01-08T16:09:59.974Z,98025.00
2023-01-08T16:13:10.938Z,98018.00
2023-01-08T16:16:21.067Z,98016.80
2023-01-08T16:19:30.310Z,98019.40
2023-01-08T16:22:38.831Z,98011.00
2023-01-08T16:25:47.159Z,98004.80
2023-01-08T16:28:55.389Z,98007.00
2023-01-08T16:32:03.585Z,98006.00
2023-01-08T16:35:13.563Z,98001.80
2023-01-08T16:38:21.817Z,98003.00
2023-01-08T16:41:30.041Z,98006.20
2023-01-08T16:44:41.026Z,98002.80
2023-01-08T16:47:49.798Z,98001.20
2023-01-08T16:51:05.322Z,97999.00
2023-01-08T16:54:17.366Z,97997.60
2023-01-08T16:57:25.676Z,97996.80
2023-01-08T17:00:33.839Z,98001.40
2023-01-08T17:03:42.408Z,97998.20
2023-01-08T17:06:51.437Z,97998.20
2023-01-08T17:09:59.562Z,97990.80
2023-01-08T17:13:08.138Z,97996.00
2023-01-08T17:16:19.898Z,97994.60
2023-01-08T17:19:28.703Z,98002.00
2023-01-08T17:22:36.672Z,97998.40
2023-01-08T17:25:45.938Z,98002.40
2023-01-08T17:28:54.296Z,97994.80
2023-01-08T17:32:02.336Z,97989.80
2023-01-08T17:35:11.887Z,97991.20
2023-01-08T17:38:19.779Z,97986.40
2023-01-08T17:41:45.402Z,97981.80
2023-01-08T17:44:53.609Z,97976.20
2023-01-08T17:48:02.026Z,97975.20
2023-01-08T17:51:14.943Z,97976.20
2023-01-08T17:54:24.192Z,97975.20
2023-01-08T17:57:32.759Z,97978.60
2023-01-08T18:00:41.293Z,97981.20
2023-01-08T18:03:49.861Z,97980.20
2023-01-08T18:06:59.674Z,97986.40
2023-01-08T18:10:07.008Z,97987.80
2023-01-08T18:13:15.427Z,97988.40
2023-01-08T18:16:23.448Z,97980.40
2023-01-08T18:19:32.139Z,97981.00
2023-01-08T18:22:40.162Z,97980.20
2023-01-08T18:25:48.544Z,97981.60
2023-01-08T18:28:57.265Z,97990.20
2023-01-08T18:32:05.257Z,97994.80
2023-01-08T18:35:15.477Z,97988.60
2023-01-08T18:38:24.330Z,97990.60
2023-01-08T18:41:50.229Z,97986.40
2023-01-08T18:44:59.070Z,97986.20
2023-01-08T18:48:09.710Z,97991.60
2023-01-08T18:51:17.655Z,97996.20
2023-01-08T18:54:25.640Z,97994.60
2023-01-08T18:57:33.782Z,97989.80
2023-01-08T19:00:41.892Z,97985.80
2023-01-08T19:03:50.121Z,97988.20
2023-01-08T19:06:57.855Z,97989.80
2023-01-08T19:10:06.171Z,97992.80
2023-01-08T19:13:14.960Z,97996.20
2023-01-08T19:16:23.595Z,97998.40
2023-01-08T19:19:32.039Z,97998.60
2023-01-08T19:22:40.060Z,97990.40
2023-01-08T19:25:48.263Z,97987.20
2023-01-08T19:28:56.337Z,97986.20
2023-01-08T19:32:04.240Z,97982.00
2023-01-08T19:35:15.119Z,97977.00
2023-01-08T19:38:23.719Z,97974.80
2023-01-08T19:41:49.819Z,97970.60
2023-01-08T19:44:57.678Z,97967.20
2023-01-08T19:48:05.794Z,97964.60
2023-01-08T19:51:15.782Z,97965.80
2023-01-08T19:54:26.209Z,97965.60
2023-01-08T19:57:34.556Z,97958.20
2023-01-08T20:00:42.480Z,97952.40
2023-01-08T20:03:53.501Z,97953.00
2023-01-08T20:07:02.346Z,97951.20
2023-01-08T20:10:13.712Z,97949.00
2023-01-08T20:13:21.564Z,97945.00
2023-01-08T20:16:31.068Z,97944.20
2023-01-08T20:19:39.559Z,97942.60
2023-01-08T20:22:48.304Z,97941.00
2023-01-08T20:25:56.355Z,97941.00
2023-01-08T20:29:04.644Z,97937.60
2023-01-08T20:32:12.832Z,97941.00
2023-01-08T20:35:21.169Z,97941.20
2023-01-08T20:38:29.211Z,97939.00
2023-01-08T20:41:37.268Z,97933.60
2023-01-08T20:44:45.381Z,97938.40
2023-01-08T20:47:53.433Z,97938.20
2023-01-08T20:51:04.868Z,97938.00
2023-01-08T20:54:16.387Z,97931.40
2023-01-08T20:57:24.123Z,97926.80
2023-01-08T21:00:32.108Z,97928.40
2023-01-08T21:03:41.055Z,97927.60
2023-01-08T21:06:49.414Z,97921.60
2023-01-08T21:09:57.411Z,97918.60
2023-01-08T21:13:05.778Z,97915.80
2023-01-08T21:16:18.004Z,97915.60
2023-01-08T21:19:25.756Z,97908.00
2023-01-08T21:22:34.761Z,97911.00
2023-01-08T21:25:42.792Z,97908.00
2023-01-08T21:28:51.367Z,97908.60
2023-01-08T21:31:59.523Z,97907.20
2023-01-08T21:35:08.725Z,97903.60
2023-01-08T21:38:17.180Z,97898.40
2023-01-08T21:41:45.696Z,97895.20
2023-01-08T21:45:11.716Z,97894.60
2023-01-08T21:48:19.823Z,97892.80
2023-01-08T21:51:45.443Z,97890.60
2023-01-08T21:54:53.867Z,97881.60
2023-01-08T21:58:01.955Z,97880.00
2023-01-08T22:01:13.415Z,97874.20
2023-01-08T22:04:21.991Z,97869.00
2023-01-08T22:07:30.354Z,97862.40
2023-01-08T22:10:41.105Z,97865.20
2023-01-08T22:13:49.055Z,97866.00
2023-01-08T22:16:57.480Z,97867.20
2023-01-08T22:20:08.295Z,97862.20
2023-01-08T22:23:16.498Z,97860.00
2023-01-08T22:26:24.810Z,97860.00
2023-01-08T22:29:33.077Z,97851.20
2023-01-08T22:32:41.159Z,97847.40
2023-01-08T22:35:49.123Z,97843.60
2023-01-08T22:38:57.459Z,97833.20
2023-01-08T22:42:06.631Z,97836.40
2023-01-08T22:45:15.601Z,97839.60
2023-01-08T22:48:24.114Z,97827.60
2023-01-08T22:51:33.011Z,97825.60
2023-01-08T22:54:41.677Z,97827.00
2023-01-08T22:57:52.083Z,97822.40
2023-01-08T23:01:00.566Z,97815.40
2023-01-08T23:04:09.682Z,97812.80
2023-01-08T23:07:17.951Z,97805.00
2023-01-08T23:10:26.514Z,97805.80
2023-01-08T23:13:34.860Z,97798.60
2023-01-08T23:16:43.502Z,97799.00
2023-01-08T23:19:51.810Z,97795.20
2023-01-08T23:23:00.313Z,97788.60
2023-01-08T23:26:14.559Z,97788.60
2023-01-08T23:29:22.816Z,97783.40
2023-01-08T23:32:31.652Z,97778.40
2023-01-08T23:35:40.213Z,97772.60
2023-01-08T23:38:49.574Z,97764.60
2023-01-08T23:41:57.633Z,97772.80
2023-01-08T23:45:11.265Z,97780.20
2023-01-08T23:48:19.992Z,97769.20
2023-01-08T23:51:28.615Z,97761.20
2023-01-08T23:54:36.651Z,97753.40
2023-01-08T23:57:44.810Z,97739.00
